Time;durP1;ratioP1;P1;durP2;ratioP2;P2;SDS_P1;SDS_P2;PMS_P1;PMS_P2;Temp;Humidity;BMP_temperature;BMP_pressure;BME280_temperature;BME280_humidity;BME280_pressure;Samples;Min_cycle;Max_cycle;Signal;HPM_P1;HPM_P2
2022/09/08 00:00:26;;;;;;;23.35;21.15;;;16.20;99.90;;;;;;4934744;29;20055;-74
2022/09/08 00:02:53;;;;;;;26.38;23.58;;;16.10;99.90;;;;;;4936075;29;20585;-74
2022/09/08 00:05:24;;;;;;;26.73;24.05;;;16.10;99.90;;;;;;4937360;29;20114;-74
2022/09/08 00:07:52;;;;;;;27.83;25.23;;;16.10;99.90;;;;;;4944360;28;20078;-74
2022/09/08 00:10:18;;;;;;;26.52;24.08;;;16.10;99.90;;;;;;4956082;28;20139;-74
2022/09/08 00:12:44;;;;;;;26.40;23.90;;;16.10;99.90;;;;;;4955457;28;20034;-74
2022/09/08 00:15:11;;;;;;;28.45;25.75;;;16.10;99.90;;;;;;4928665;29;20082;-74
2022/09/08 00:17:37;;;;;;;28.90;26.00;;;16.10;99.90;;;;;;4935801;28;20079;-75
2022/09/08 00:20:05;;;;;;;24.88;22.58;;;16.00;99.90;;;;;;4955883;28;20035;-75
2022/09/08 00:22:31;;;;;;;28.55;25.90;;;16.00;99.90;;;;;;4948047;28;20394;-75
2022/09/08 00:24:56;;;;;;;28.27;25.70;;;16.10;99.90;;;;;;4955855;28;20043;-76
2022/09/08 00:27:22;;;;;;;28.95;26.15;;;16.00;99.90;;;;;;4948294;29;20075;-75
2022/09/08 00:29:48;;;;;;;30.42;27.42;;;16.10;99.90;;;;;;4952776;28;20078;-75
2022/09/08 00:32:13;;;;;;;26.80;24.30;;;16.10;99.90;;;;;;4942084;29;20070;-75
2022/09/08 00:34:39;;;;;;;29.60;26.70;;;16.10;99.90;;;;;;4936614;29;20129;-75
2022/09/08 00:37:04;;;;;;;30.05;27.15;;;16.00;99.90;;;;;;4951551;29;20039;-75
2022/09/08 00:39:30;;;;;;;30.17;27.17;;;16.10;99.90;;;;;;4939628;28;20521;-75
2022/09/08 00:41:56;;;;;;;29.48;26.67;;;16.10;99.90;;;;;;4944112;28;20061;-75
2022/09/08 00:44:48;;;;;;;31.00;27.90;;;16.10;99.90;;;;;;4952438;29;20509;-74
2022/09/08 00:47:24;;;;;;;32.53;29.38;;;16.10;99.90;;;;;;4952191;28;20522;-74
2022/09/08 00:50:14;;;;;;;32.28;29.15;;;16.10;99.90;;;;;;4962366;28;20038;-74
2022/09/08 00:52:48;;;;;;;33.38;30.08;;;16.10;99.90;;;;;;4930531;29;20078;-75
2022/09/08 00:55:15;;;;;;;32.50;29.27;;;16.20;99.90;;;;;;4936463;28;20047;-75
2022/09/08 00:57:41;;;;;;;33.33;30.15;;;16.20;99.90;;;;;;4955206;28;20045;-75
2022/09/08 01:00:09;;;;;;;31.98;28.83;;;16.20;99.90;;;;;;4955455;28;20118;-75
2022/09/08 01:02:35;;;;;;;32.10;29.00;;;16.30;99.90;;;;;;4939588;28;20035;-75
2022/09/08 01:05:10;;;;;;;32.45;29.35;;;16.20;99.90;;;;;;4928459;29;20453;-75
2022/09/08 01:13:31;;;;;;;32.70;29.57;;;16.30;99.90;;;;;;4949226;28;20069;-75
2022/09/08 01:15:57;;;;;;;33.92;30.63;;;16.30;99.90;;;;;;4955453;28;20042;-75
2022/09/08 01:18:23;;;;;;;32.35;28.98;;;16.30;99.90;;;;;;4934504;29;20040;-75
2022/09/08 01:20:59;;;;;;;32.70;29.48;;;16.30;99.90;;;;;;4935377;29;20038;-75
2022/09/08 01:23:39;;;;;;;34.95;31.45;;;16.40;99.90;;;;;;4940911;28;20409;-75
2022/09/08 01:26:35;;;;;;;34.95;31.45;;;16.40;99.90;;;;;;4942392;28;20094;-75
2022/09/08 01:29:05;;;;;;;34.83;31.38;;;16.40;99.90;;;;;;4955031;28;20049;-75
2022/09/08 01:31:33;;;;;;;34.88;31.48;;;16.50;99.90;;;;;;4947314;29;20039;-75
2022/09/08 01:34:00;;;;;;;34.90;31.60;;;16.40;99.90;;;;;;4932041;28;20054;-75
2022/09/08 01:36:26;;;;;;;34.53;31.13;;;16.50;99.90;;;;;;4955209;28;20118;-75
2022/09/08 01:38:51;;;;;;;34.35;30.95;;;16.50;99.90;;;;;;4938895;28;20126;-75
2022/09/08 01:41:17;;;;;;;35.22;31.90;;;16.60;99.90;;;;;;4949291;29;20074;-75
2022/09/08 01:43:43;;;;;;;32.97;29.88;;;16.60;99.90;;;;;;4929690;28;20041;-74
2022/09/08 01:46:08;;;;;;;33.95;30.48;;;16.60;99.90;;;;;;4955243;28;20042;-74
2022/09/08 01:48:35;;;;;;;34.25;30.85;;;16.70;99.90;;;;;;4954766;28;20055;-75
2022/09/08 01:51:02;;;;;;;33.92;30.65;;;16.60;99.90;;;;;;4944316;28;20425;-75
2022/09/08 01:53:28;;;;;;;33.08;29.88;;;16.60;99.90;;;;;;4944630;28;20051;-75
2022/09/08 01:55:54;;;;;;;33.00;29.80;;;16.60;99.90;;;;;;4952951;28;20042;-75
2022/09/08 01:58:19;;;;;;;33.55;30.25;;;16.60;99.90;;;;;;4955638;28;20070;-75
2022/09/08 02:00:45;;;;;;;31.90;28.67;;;16.60;99.90;;;;;;4958573;28;20035;-75
2022/09/08 02:03:12;;;;;;;33.08;29.80;;;16.70;99.90;;;;;;4954227;29;20039;-75
2022/09/08 02:05:42;;;;;;;33.55;30.15;;;16.70;99.90;;;;;;4946668;28;20058;-74
2022/09/08 02:08:08;;;;;;;32.03;28.92;;;16.70;99.90;;;;;;4958384;28;20133;-75
2022/09/08 02:10:34;;;;;;;32.50;29.38;;;16.70;99.90;;;;;;4958697;28;20505;-75
2022/09/08 02:13:00;;;;;;;33.17;29.88;;;16.70;99.90;;;;;;4958334;28;20081;-75
2022/09/08 02:15:26;;;;;;;32.92;29.77;;;16.70;99.90;;;;;;4957415;28;20445;-75
2022/09/08 02:17:51;;;;;;;32.95;29.73;;;16.70;99.90;;;;;;4946793;28;20036;-75
2022/09/08 02:20:17;;;;;;;32.45;29.17;;;16.70;99.90;;;;;;4949721;28;20038;-75
2022/09/08 02:22:43;;;;;;;33.72;30.42;;;16.70;99.90;;;;;;4940298;29;20047;-75
2022/09/08 02:25:09;;;;;;;31.70;28.55;;;16.70;99.90;;;;;;4941351;28;20148;-75
2022/09/08 02:27:35;;;;;;;31.42;28.23;;;16.70;99.90;;;;;;4958012;28;20108;-75
2022/09/08 02:30:00;;;;;;;31.60;28.60;;;16.70;99.90;;;;;;4958032;28;20070;-75
2022/09/08 02:32:26;;;;;;;31.38;28.48;;;16.70;99.90;;;;;;4935545;29;20371;-75
2022/09/08 02:34:52;;;;;;;32.13;29.02;;;16.70;99.90;;;;;;4954003;28;20065;-75
2022/09/08 02:37:18;;;;;;;31.02;28.02;;;16.80;99.90;;;;;;4957930;28;20077;-75
2022/09/08 02:39:44;;;;;;;32.30;29.20;;;16.80;99.90;;;;;;4957931;28;20121;-75
2022/09/08 02:42:11;;;;;;;33.00;29.75;;;16.80;99.90;;;;;;4958061;28;20366;-75
2022/09/08 02:44:38;;;;;;;32.70;29.52;;;16.70;99.90;;;;;;4955914;28;20039;-75
2022/09/08 02:47:04;;;;;;;32.63;29.45;;;16.80;99.90;;;;;;4962007;28;20041;-75
2022/09/08 02:49:31;;;;;;;33.78;30.48;;;16.80;99.90;;;;;;4961356;28;20038;-75
2022/09/08 02:51:57;;;;;;;32.10;28.98;;;16.90;99.90;;;;;;4957648;28;20489;-75
2022/09/08 02:54:23;;;;;;;33.00;29.70;;;16.90;99.90;;;;;;4956689;28;20058;-75
2022/09/08 02:56:49;;;;;;;32.17;29.15;;;16.90;99.90;;;;;;4915292;28;20049;-75
2022/09/08 02:59:15;;;;;;;32.50;29.40;;;16.90;99.90;;;;;;4951960;28;20035;-75
2022/09/08 03:01:42;;;;;;;33.72;30.48;;;16.80;99.90;;;;;;4940031;29;20051;-75
2022/09/08 03:04:08;;;;;;;32.58;29.45;;;16.80;99.90;;;;;;4941525;28;20038;-75
2022/09/08 03:06:33;;;;;;;33.22;30.05;;;16.90;99.90;;;;;;4941324;28;20066;-76
2022/09/08 03:08:59;;;;;;;31.75;28.65;;;16.80;99.90;;;;;;4957353;28;20043;-75
2022/09/08 03:11:24;;;;;;;32.33;29.23;;;16.90;99.90;;;;;;4938674;29;20044;-75
2022/09/08 03:13:50;;;;;;;32.70;29.45;;;16.90;99.90;;;;;;4937784;29;20572;-76
2022/09/08 03:16:16;;;;;;;33.42;30.13;;;16.90;99.90;;;;;;4955742;28;20042;-76
2022/09/08 03:18:41;;;;;;;33.92;30.63;;;17.00;99.90;;;;;;4956777;28;20043;-76
2022/09/08 03:21:10;;;;;;;32.78;29.63;;;16.90;99.90;;;;;;4957455;28;20038;-75
2022/09/08 03:23:36;;;;;;;33.83;30.60;;;16.90;99.90;;;;;;4925908;29;20035;-75
2022/09/08 03:26:04;;;;;;;32.95;29.75;;;16.90;99.90;;;;;;4945303;28;20402;-75
2022/09/08 03:28:30;;;;;;;33.83;30.52;;;16.90;99.90;;;;;;4940528;29;20058;-76
2022/09/08 03:30:56;;;;;;;33.78;30.63;;;16.90;99.90;;;;;;4937829;29;20047;-76
2022/09/08 03:33:22;;;;;;;32.08;29.00;;;16.90;99.90;;;;;;4938045;29;20536;-76
2022/09/08 03:35:47;;;;;;;32.13;29.05;;;16.90;99.90;;;;;;4963295;28;20121;-76
2022/09/08 03:38:16;;;;;;;31.95;28.85;;;17.00;99.90;;;;;;4949049;28;20039;-75
2022/09/08 03:40:43;;;;;;;32.33;29.23;;;16.90;99.90;;;;;;4937592;29;20465;-76
2022/09/08 03:43:09;;;;;;;33.92;30.77;;;16.90;99.90;;;;;;4921684;29;20086;-75
2022/09/08 03:45:35;;;;;;;34.47;31.08;;;17.00;99.90;;;;;;4930437;28;20054;-76
2022/09/08 03:48:01;;;;;;;32.70;29.42;;;16.90;99.90;;;;;;4956275;28;20043;-75
2022/09/08 03:50:26;;;;;;;32.38;29.17;;;16.90;99.90;;;;;;4952145;29;20039;-76
2022/09/08 03:52:52;;;;;;;33.28;29.98;;;16.80;99.90;;;;;;4931419;28;20085;-75
2022/09/08 03:55:18;;;;;;;33.88;30.65;;;16.90;99.90;;;;;;4952333;28;20453;-75
2022/09/08 03:57:44;;;;;;;31.90;28.80;;;16.90;99.90;;;;;;4956019;28;20042;-75
2022/09/08 04:00:11;;;;;;;29.58;26.77;;;16.90;99.90;;;;;;4953910;28;20127;-75
2022/09/08 04:02:37;;;;;;;30.45;27.67;;;16.80;99.90;;;;;;4929358;29;20469;-75
2022/09/08 04:05:03;;;;;;;31.45;28.45;;;16.80;99.90;;;;;;4953143;29;20135;-75
2022/09/08 04:07:30;;;;;;;29.40;26.67;;;16.80;99.90;;;;;;4951446;28;20041;-75
2022/09/08 04:09:57;;;;;;;31.33;28.33;;;16.80;99.90;;;;;;4956191;28;20054;-76
2022/09/08 04:12:24;;;;;;;31.95;28.85;;;16.80;99.90;;;;;;4956469;28;20413;-76
2022/09/08 04:14:50;;;;;;;31.70;28.60;;;16.80;99.90;;;;;;4929513;29;20035;-75
2022/09/08 04:17:18;;;;;;;33.67;30.38;;;16.80;99.90;;;;;;4940335;28;20039;-75
2022/09/08 04:19:46;;;;;;;32.78;29.60;;;16.80;99.90;;;;;;4945975;28;20035;-75
2022/09/08 04:22:12;;;;;;;33.42;30.20;;;16.80;99.90;;;;;;4965200;28;20057;-75
2022/09/08 04:24:38;;;;;;;32.25;29.17;;;16.80;99.90;;;;;;4956228;28;20031;-76
2022/09/08 04:27:04;;;;;;;31.30;28.30;;;16.80;99.90;;;;;;4941980;29;20040;-76
2022/09/08 04:29:29;;;;;;;31.17;28.10;;;16.80;99.90;;;;;;4925244;29;20126;-76
2022/09/08 04:31:55;;;;;;;31.45;28.30;;;16.90;99.90;;;;;;4936728;29;20039;-76
2022/09/08 04:34:20;;;;;;;31.17;27.98;;;16.90;99.90;;;;;;4930674;28;20039;-76
2022/09/08 04:36:46;;;;;;;28.98;26.23;;;16.80;99.90;;;;;;4955732;28;20453;-75
2022/09/08 04:39:13;;;;;;;28.55;25.77;;;16.90;99.90;;;;;;4955490;28;20133;-75
2022/09/08 04:41:39;;;;;;;28.67;25.88;;;16.90;99.90;;;;;;4933588;29;20040;-76
2022/09/08 04:44:06;;;;;;;30.00;27.08;;;16.90;99.90;;;;;;4920574;29;20035;-76
2022/09/08 04:46:33;;;;;;;28.02;25.25;;;16.90;99.90;;;;;;4936555;29;20050;-76
2022/09/08 04:48:59;;;;;;;27.23;24.50;;;16.80;99.90;;;;;;4928819;28;20034;-75
2022/09/08 04:51:27;;;;;;;26.92;24.20;;;16.80;99.90;;;;;;4950829;28;20498;-75
2022/09/08 04:53:53;;;;;;;28.23;25.40;;;16.70;99.90;;;;;;4921180;29;20545;-75
2022/09/08 04:56:20;;;;;;;29.63;26.63;;;16.80;99.90;;;;;;4952325;29;20074;-75
2022/09/08 04:58:46;;;;;;;29.23;26.30;;;16.80;99.90;;;;;;4936572;28;20098;-75
2022/09/08 05:01:32;;;;;;;29.67;26.48;;;16.70;99.90;;;;;;4947447;28;20081;-75
2022/09/08 05:04:00;;;;;;;28.60;25.73;;;16.70;99.90;;;;;;4942983;29;20094;-76
2022/09/08 05:06:27;;;;;;;29.95;27.00;;;16.70;99.90;;;;;;4928373;29;20493;-76
2022/09/08 05:08:57;;;;;;;30.58;27.52;;;16.70;99.90;;;;;;4954293;28;20121;-81
2022/09/08 05:11:25;;;;;;;32.75;29.45;;;16.70;99.90;;;;;;4936572;28;20381;-80
2022/09/08 05:13:51;;;;;;;30.55;27.35;;;16.70;99.90;;;;;;4911107;29;20106;-81
2022/09/08 05:16:22;;;;;;;32.63;29.15;;;16.70;99.90;;;;;;4947605;28;20054;-81
2022/09/08 05:18:50;;;;;;;31.33;28.13;;;16.70;99.90;;;;;;4931612;28;20500;-80
2022/09/08 05:21:16;;;;;;;35.20;31.48;;;16.70;99.90;;;;;;4939359;28;20046;-80
2022/09/08 05:23:42;;;;;;;35.65;31.85;;;16.70;99.90;;;;;;4922951;29;20066;-80
2022/09/08 05:26:11;;;;;;;36.05;32.17;;;16.70;99.90;;;;;;4945955;28;20118;-80
2022/09/08 05:28:39;;;;;;;32.03;28.77;;;16.60;99.90;;;;;;4952414;28;20046;-80
2022/09/08 05:31:06;;;;;;;34.30;30.75;;;16.70;99.90;;;;;;4945599;29;20043;-81
2022/09/08 05:33:33;;;;;;;33.90;30.42;;;16.60;99.90;;;;;;4929560;28;20098;-76
2022/09/08 05:35:59;;;;;;;34.45;30.92;;;16.70;99.90;;;;;;4958802;28;20054;-76
2022/09/08 05:38:25;;;;;;;38.45;34.50;;;16.70;99.90;;;;;;4942727;28;20042;-76
2022/09/08 05:40:51;;;;;;;36.92;33.17;;;16.70;99.90;;;;;;4958956;28;20089;-76
2022/09/08 05:43:18;;;;;;;36.38;32.67;;;16.70;99.90;;;;;;4959139;28;20043;-76
2022/09/08 05:45:49;;;;;;;37.00;33.25;;;16.70;99.90;;;;;;4945230;29;20394;-76
2022/09/08 05:48:15;;;;;;;36.53;32.75;;;16.60;99.90;;;;;;4933901;28;20043;-76
2022/09/08 05:50:42;;;;;;;40.83;36.60;;;16.70;99.90;;;;;;4939826;29;20051;-76
2022/09/08 05:53:07;;;;;;;37.67;33.85;;;16.80;99.90;;;;;;4939598;29;20047;-80
2022/09/08 05:55:33;;;;;;;39.70;35.65;;;16.70;99.90;;;;;;4962349;28;20089;-82
2022/09/08 05:57:59;;;;;;;38.88;34.88;;;16.70;99.90;;;;;;4940961;28;20081;-82
2022/09/08 06:00:25;;;;;;;39.00;34.90;;;16.70;99.90;;;;;;4936969;29;20422;-81
2022/09/08 06:02:52;;;;;;;39.03;34.97;;;16.70;99.90;;;;;;4931480;29;20036;-81
2022/09/08 06:05:19;;;;;;;37.60;33.80;;;16.80;99.90;;;;;;4953781;29;20043;-82
2022/09/08 06:07:45;;;;;;;37.45;33.70;;;16.80;99.90;;;;;;4953487;28;20098;-82
2022/09/08 06:10:11;;;;;;;37.63;33.72;;;16.80;99.90;;;;;;4941276;28;20035;-81
2022/09/08 06:12:36;;;;;;;38.70;34.75;;;16.80;99.90;;;;;;4944301;28;20046;-81
2022/09/08 06:15:02;;;;;;;39.72;35.72;;;16.90;99.90;;;;;;4931479;28;20116;-82
2022/09/08 06:17:28;;;;;;;39.13;35.13;;;16.90;99.90;;;;;;4958460;28;20046;-77
2022/09/08 06:19:53;;;;;;;37.92;34.13;;;16.90;99.90;;;;;;4948502;28;20177;-78
2022/09/08 06:22:19;;;;;;;39.58;35.63;;;17.00;99.90;;;;;;4942174;28;20039;-77
2022/09/08 06:24:44;;;;;;;38.38;34.40;;;16.90;99.90;;;;;;4941483;28;20110;-76
2022/09/08 06:27:30;;;;;;;38.03;34.15;;;17.00;99.90;;;;;;4940546;28;20085;-77
2022/09/08 06:30:11;;;;;;;39.03;35.10;;;17.00;99.90;;;;;;4925091;28;20119;-78
2022/09/08 06:32:54;;;;;;;39.83;35.70;;;17.00;99.90;;;;;;4959805;28;20035;-75
2022/09/08 06:35:34;;;;;;;38.58;34.60;;;17.00;99.90;;;;;;4933354;28;20045;-76
2022/09/08 06:38:09;;;;;;;37.67;33.78;;;17.00;99.90;;;;;;4929232;29;20074;-76
2022/09/08 06:40:38;;;;;;;39.60;35.60;;;17.10;99.90;;;;;;4946568;29;20572;-76
2022/09/08 06:43:20;;;;;;;34.15;30.70;;;17.10;99.90;;;;;;4953578;29;20035;-76
2022/09/08 06:45:55;;;;;;;29.27;26.25;;;17.00;99.90;;;;;;4943058;29;20062;-76
2022/09/08 06:48:24;;;;;;;24.95;20.75;;;17.10;99.90;;;;;;4933662;28;20402;-76
2022/09/08 06:51:27;;;;;;;22.58;20.15;;;17.20;99.90;;;;;;4937879;29;20047;-78
2022/09/08 06:54:08;;;;;;;20.58;18.58;;;17.10;99.90;;;;;;4954787;29;20481;-76
2022/09/08 06:56:53;;;;;;;17.63;15.82;;;17.00;99.90;;;;;;4922659;29;20057;-76
2022/09/08 06:59:50;;;;;;;17.70;14.52;;;17.00;99.90;;;;;;4914016;29;20442;-76
2022/09/08 07:02:23;;;;;;;14.05;12.65;;;17.10;99.90;;;;;;4924998;29;20431;-76
2022/09/08 07:04:58;;;;;;;12.93;11.45;;;17.10;99.90;;;;;;4929676;29;20434;-76
2022/09/08 07:07:31;;;;;;;10.82;9.73;;;17.10;99.90;;;;;;4921411;29;20486;-76
2022/09/08 07:10:08;;;;;;;8.50;7.70;;;17.10;99.90;;;;;;4922674;29;20039;-76
2022/09/08 07:13:03;;;;;;;7.65;6.95;;;17.20;99.90;;;;;;4938733;29;20039;-76
2022/09/08 07:15:53;;;;;;;6.68;6.07;;;17.10;99.90;;;;;;4922182;29;20043;-76
2022/09/08 07:18:34;;;;;;;6.65;5.88;;;17.10;99.90;;;;;;4932956;28;20039;-76
2022/09/08 07:21:22;;;;;;;6.30;5.70;;;17.10;99.90;;;;;;4938092;29;20482;-76
2022/09/08 07:23:49;;;;;;;6.20;5.45;;;17.00;99.90;;;;;;4929167;29;20043;-76
2022/09/08 07:26:41;;;;;;;5.85;5.32;;;17.00;99.90;;;;;;4953815;29;20506;-76
2022/09/08 07:29:21;;;;;;;8.18;5.28;;;16.90;99.90;;;;;;4931999;29;20042;-76
2022/09/08 07:31:50;;;;;;;6.03;5.43;;;17.00;99.90;;;;;;4921342;29;20410;-76
2022/09/08 07:34:28;;;;;;;5.45;4.95;;;17.00;99.90;;;;;;4937751;29;20043;-76
2022/09/08 07:37:12;;;;;;;6.20;5.60;;;16.90;99.90;;;;;;4921698;29;20126;-76
2022/09/08 07:39:50;;;;;;;6.22;5.55;;;16.90;99.90;;;;;;4937646;29;20051;-76
2022/09/08 07:42:16;;;;;;;6.15;5.55;;;16.90;99.90;;;;;;4936832;29;20043;-76
2022/09/08 07:44:42;;;;;;;5.72;5.22;;;16.90;99.90;;;;;;4924042;29;20129;-76
2022/09/08 07:47:22;;;;;;;6.38;5.78;;;16.90;99.90;;;;;;4937277;29;20521;-76
2022/09/08 07:50:20;;;;;;;6.78;6.07;;;16.90;99.90;;;;;;4953304;28;20045;-76
2022/09/08 07:53:14;;;;;;;7.75;5.93;;;16.80;99.90;;;;;;4953798;28;20498;-76
2022/09/08 07:55:42;;;;;;;6.15;5.55;;;16.80;99.90;;;;;;4921124;29;20044;-76
2022/09/08 07:58:41;;;;;;;6.43;5.72;;;16.80;99.90;;;;;;4912433;28;20039;-76
2022/09/08 08:01:31;;;;;;;6.70;6.00;;;16.80;99.90;;;;;;4918317;29;20048;-76
2022/09/08 08:04:20;;;;;;;6.60;5.93;;;16.80;99.90;;;;;;4925888;29;20594;-77
2022/09/08 08:06:55;;;;;;;6.90;6.07;;;16.80;99.90;;;;;;4937422;29;20327;-76
2022/09/08 08:09:27;;;;;;;6.68;5.97;;;16.80;99.90;;;;;;4953288;28;20346;-76
2022/09/08 08:12:20;;;;;;;7.05;6.35;;;16.80;99.90;;;;;;4937150;29;20082;-76
2022/09/08 08:15:01;;;;;;;7.25;6.65;;;16.80;99.90;;;;;;4935118;29;20529;-76
2022/09/08 08:17:56;;;;;;;7.60;6.00;;;16.80;99.90;;;;;;4921052;29;20070;-76
2022/09/08 08:20:40;;;;;;;6.60;5.97;;;16.80;99.90;;;;;;4936936;29;20118;-76
2022/09/08 08:23:06;;;;;;;7.93;6.28;;;16.70;99.90;;;;;;4936373;29;20512;-76
2022/09/08 08:26:00;;;;;;;6.75;6.05;;;16.80;99.90;;;;;;4937030;29;20130;-76
2022/09/08 08:28:29;;;;;;;6.82;6.22;;;16.70;99.90;;;;;;4952520;28;20046;-76
2022/09/08 08:31:04;;;;;;;7.25;6.55;;;16.80;99.90;;;;;;4936793;29;20517;-75
2022/09/08 08:33:35;;;;;;;7.43;6.65;;;16.70;99.90;;;;;;4936641;29;20050;-75
2022/09/08 08:36:04;;;;;;;7.13;6.40;;;16.70;99.90;;;;;;4952743;29;20129;-75
2022/09/08 08:38:47;;;;;;;6.38;5.78;;;16.70;99.90;;;;;;4927764;29;20046;-76
2022/09/08 08:41:47;;;;;;;6.68;6.00;;;16.60;99.90;;;;;;4936768;29;20079;-76
2022/09/08 08:44:31;;;;;;;7.78;6.97;;;16.70;99.90;;;;;;4936681;29;20047;-76
2022/09/08 08:47:00;;;;;;;6.85;6.15;;;16.60;99.90;;;;;;4937134;29;20051;-74
2022/09/08 08:49:44;;;;;;;6.47;5.80;;;16.60;99.90;;;;;;4951446;28;20043;-75
2022/09/08 08:52:47;;;;;;;6.30;5.70;;;16.60;99.90;;;;;;4940487;29;20039;-74
2022/09/08 08:55:39;;;;;;;7.10;5.60;;;16.60;99.90;;;;;;4933396;29;20510;-75
2022/09/08 08:58:26;;;;;;;8.38;5.90;;;16.60;99.90;;;;;;4949039;29;20079;-75
2022/09/08 09:01:12;;;;;;;6.63;5.85;;;16.50;99.90;;;;;;4933325;29;20040;-74
2022/09/08 09:03:55;;;;;;;5.63;5.13;;;16.40;99.90;;;;;;4939688;29;20039;-74
2022/09/08 09:06:38;;;;;;;5.60;5.10;;;16.50;99.90;;;;;;4932053;29;20047;-75
2022/09/08 09:09:36;;;;;;;5.57;5.00;;;16.40;99.90;;;;;;4939833;29;20053;-75
2022/09/08 09:12:26;;;;;;;4.20;3.65;;;16.40;99.90;;;;;;4913793;29;20055;-75
2022/09/08 09:15:42;;;;;;;4.35;3.60;;;16.40;99.90;;;;;;4940185;29;20051;-75
2022/09/08 09:18:35;;;;;;;3.88;3.05;;;16.40;99.90;;;;;;4918937;29;20171;-75
2022/09/08 09:21:09;;;;;;;5.88;3.80;;;16.30;99.90;;;;;;4917463;29;20410;-75
2022/09/08 09:24:02;;;;;;;4.40;3.47;;;16.30;99.90;;;;;;4940252;29;20065;-75
2022/09/08 09:26:34;;;;;;;4.10;3.50;;;16.30;99.90;;;;;;4956452;29;20503;-75
2022/09/08 09:29:23;;;;;;;4.53;3.72;;;16.20;99.90;;;;;;4930917;29;20035;-75
2022/09/08 09:32:10;;;;;;;3.97;3.17;;;16.30;99.90;;;;;;4955779;29;20565;-75
2022/09/08 09:34:54;;;;;;;3.55;3.25;;;16.30;99.90;;;;;;4955977;29;20047;-75
2022/09/08 09:37:31;;;;;;;4.13;3.72;;;16.40;99.90;;;;;;4939734;29;20521;-75
2022/09/08 09:40:14;;;;;;;5.03;4.00;;;16.40;99.90;;;;;;4939966;29;20044;-75
2022/09/08 09:43:04;;;;;;;5.20;3.97;;;16.40;99.90;;;;;;4930798;29;20043;-75
2022/09/08 09:46:03;;;;;;;5.15;4.65;;;16.40;99.90;;;;;;4940054;29;20458;-75
2022/09/08 09:48:55;;;;;;;5.75;4.35;;;16.50;99.90;;;;;;4921742;29;20138;-75
2022/09/08 09:51:29;;;;;;;5.60;4.95;;;16.50;99.90;;;;;;4923940;29;20090;-75
2022/09/08 09:54:31;;;;;;;5.80;4.60;;;16.50;99.90;;;;;;4935264;29;20490;-75
2022/09/08 09:57:31;;;;;;;6.57;5.23;;;16.60;99.90;;;;;;4921400;29;20066;-75
2022/09/08 10:00:21;;;;;;;6.05;5.25;;;16.60;99.90;;;;;;4923929;29;20401;-75
2022/09/08 10:02:50;;;;;;;6.80;5.40;;;16.60;99.90;;;;;;4922736;29;20069;-75
2022/09/08 10:05:19;;;;;;;6.00;5.40;;;16.60;99.90;;;;;;4939525;29;20043;-75
2022/09/08 10:08:15;;;;;;;5.60;4.78;;;16.60;99.90;;;;;;4938067;29;20043;-75
2022/09/08 10:10:55;;;;;;;5.78;5.03;;;16.60;99.90;;;;;;4939316;29;20043;-75
2022/09/08 10:13:33;;;;;;;6.00;5.40;;;16.60;99.90;;;;;;4939279;29;20043;-75
2022/09/08 10:16:36;;;;;;;4.97;4.50;;;16.50;99.90;;;;;;4923246;29;20486;-75
2022/09/08 10:19:31;;;;;;;4.85;4.38;;;16.60;99.90;;;;;;4938297;29;20043;-75
2022/09/08 10:22:31;;;;;;;4.32;3.92;;;16.60;99.90;;;;;;4933934;29;20130;-75
2022/09/08 10:25:25;;;;;;;5.00;3.55;;;16.60;99.90;;;;;;4931685;29;20394;-75
2022/09/08 10:28:12;;;;;;;4.97;3.63;;;16.60;99.90;;;;;;4922917;29;20505;-75
2022/09/08 10:31:08;;;;;;;4.45;3.92;;;16.50;99.90;;;;;;4938961;29;20043;-75
2022/09/08 10:33:53;;;;;;;3.97;3.58;;;16.50;99.90;;;;;;4929904;29;20040;-75
2022/09/08 10:36:28;;;;;;;3.95;3.55;;;16.50;99.90;;;;;;4930836;29;20190;-75
2022/09/08 10:39:23;;;;;;;4.40;3.83;;;16.50;99.90;;;;;;4938483;29;20039;-75
2022/09/08 10:42:32;;;;;;;4.28;3.67;;;16.50;99.90;;;;;;4938743;29;20494;-75
2022/09/08 10:45:22;;;;;;;4.70;4.15;;;16.50;99.90;;;;;;4938759;29;20050;-75
2022/09/08 10:48:15;;;;;;;4.50;4.03;;;16.50;99.90;;;;;;4930069;29;20039;-75
2022/09/08 10:50:51;;;;;;;5.68;4.85;;;16.50;99.90;;;;;;4954518;29;20086;-75
2022/09/08 10:53:33;;;;;;;4.68;3.85;;;16.50;99.90;;;;;;4938552;29;20078;-75
2022/09/08 10:56:10;;;;;;;4.90;4.40;;;16.60;99.90;;;;;;4954437;29;20122;-75
2022/09/08 10:58:51;;;;;;;5.22;4.35;;;16.50;99.90;;;;;;4935091;29;20454;-75
2022/09/08 11:01:54;;;;;;;5.13;4.38;;;16.60;99.90;;;;;;4910676;29;20090;-75
2022/09/08 11:04:42;;;;;;;6.28;4.78;;;16.60;99.90;;;;;;4919415;29;20047;-74
2022/09/08 11:07:16;;;;;;;6.13;5.00;;;16.70;99.90;;;;;;4935103;29;20518;-74
2022/09/08 11:10:10;;;;;;;5.88;4.53;;;16.70;99.90;;;;;;4934989;29;20059;-75
2022/09/08 11:12:50;;;;;;;5.93;5.32;;;16.70;99.90;;;;;;4930347;29;20043;-75
2022/09/08 11:15:38;;;;;;;6.53;5.63;;;16.90;99.90;;;;;;4937487;29;20522;-74
2022/09/08 11:18:24;;;;;;;5.93;5.10;;;16.90;99.90;;;;;;4947036;28;20047;-74
2022/09/08 11:20:57;;;;;;;6.88;6.18;;;17.00;99.90;;;;;;4922547;29;20390;-74
2022/09/08 11:23:48;;;;;;;6.68;5.97;;;17.10;99.90;;;;;;4936734;29;20050;-74
2022/09/08 11:26:35;;;;;;;7.95;6.38;;;17.20;99.90;;;;;;4932310;29;20562;-75
2022/09/08 11:29:09;;;;;;;7.10;6.40;;;17.20;99.90;;;;;;4937653;29;20121;-74
2022/09/08 11:31:55;;;;;;;7.78;6.90;;;17.30;99.90;;;;;;4936941;29;20050;-74
2022/09/08 11:34:33;;;;;;;8.38;6.78;;;17.40;99.90;;;;;;4930151;29;20048;-75
2022/09/08 11:37:13;;;;;;;7.93;7.13;;;17.50;99.90;;;;;;4937339;29;20049;-74
2022/09/08 11:39:51;;;;;;;7.60;6.90;;;17.60;99.90;;;;;;4937639;29;20039;-74
2022/09/08 11:42:30;;;;;;;7.57;6.70;;;17.60;99.90;;;;;;4937678;29;20050;-74
2022/09/08 11:45:19;;;;;;;8.27;7.20;;;17.60;99.90;;;;;;4937478;29;20031;-74
2022/09/08 11:48:07;;;;;;;8.27;7.40;;;17.70;99.90;;;;;;4952342;29;20039;-74
2022/09/08 11:51:06;;;;;;;8.40;7.50;;;17.70;99.90;;;;;;4921666;29;20054;-74
2022/09/08 11:54:03;;;;;;;7.97;7.18;;;17.80;99.90;;;;;;4937702;29;20039;-75
2022/09/08 11:57:04;;;;;;;7.70;6.90;;;17.90;99.90;;;;;;4921694;29;20382;-75
2022/09/08 11:59:38;;;;;;;8.18;7.30;;;18.00;99.90;;;;;;4936499;29;20490;-75
2022/09/08 12:02:30;;;;;;;8.40;7.60;;;18.10;99.90;;;;;;4945868;29;20035;-75
2022/09/08 12:05:32;;;;;;;9.45;7.43;;;18.30;99.90;;;;;;4892253;29;20090;-74
2022/09/08 12:08:25;;;;;;;8.32;7.53;;;18.50;99.90;;;;;;4953176;28;20182;-75
2022/09/08 12:11:06;;;;;;;8.57;7.68;;;18.60;99.90;;;;;;4937449;29;20513;-74
2022/09/08 12:13:48;;;;;;;8.35;7.53;;;18.70;99.90;;;;;;4937047;29;20098;-74
2022/09/08 12:16:52;;;;;;;8.75;7.85;;;18.70;99.90;;;;;;4929974;29;20043;-74
2022/09/08 12:19:36;;;;;;;8.70;7.80;;;18.80;99.90;;;;;;4928925;29;20044;-75
2022/09/08 12:22:28;;;;;;;8.13;7.32;;;18.90;99.90;;;;;;4932106;29;20039;-74
2022/09/08 12:25:38;;;;;;;8.07;7.28;;;18.90;99.90;;;;;;4937165;29;20070;-75
2022/09/08 12:28:28;;;;;;;9.25;8.30;;;19.00;99.90;;;;;;4920592;28;20387;-75
2022/09/08 12:31:13;;;;;;;8.88;7.65;;;19.00;99.90;;;;;;4912476;29;20042;-75
2022/09/08 12:33:47;;;;;;;10.82;8.27;;;19.10;99.90;;;;;;4935101;29;20126;-75
2022/09/08 12:36:24;;;;;;;9.98;8.50;;;19.20;99.90;;;;;;4931172;29;20047;-75
2022/09/08 12:38:54;;;;;;;8.65;7.38;;;19.20;99.90;;;;;;4936476;29;20043;-75
2022/09/08 12:41:26;;;;;;;8.10;7.30;;;19.30;99.90;;;;;;4936714;29;20490;-75
2022/09/08 12:44:27;;;;;;;8.50;7.43;;;19.40;99.90;;;;;;4935531;29;20057;-74
2022/09/08 12:47:19;;;;;;;9.60;7.78;;;19.60;99.90;;;;;;4920561;29;20515;-74
2022/09/08 12:50:15;;;;;;;9.57;7.68;;;19.70;99.90;;;;;;4927849;29;20439;-75
2022/09/08 12:52:43;;;;;;;7.78;6.97;;;19.70;99.90;;;;;;4936571;29;20039;-74
2022/09/08 12:55:44;;;;;;;8.18;7.30;;;19.90;99.90;;;;;;4930418;29;20075;-74
2022/09/08 12:58:21;;;;;;;7.88;6.88;;;19.90;99.90;;;;;;4887913;28;20426;-75
2022/09/08 13:01:06;;;;;;;7.75;6.47;;;19.90;99.90;;;;;;4920690;29;20035;-75
2022/09/08 13:03:40;;;;;;;7.38;6.63;;;19.90;99.90;;;;;;4927910;29;20435;-75
2022/09/08 13:06:23;;;;;;;7.93;6.85;;;19.90;99.90;;;;;;4936286;29;20047;-75
2022/09/08 13:08:49;;;;;;;7.55;6.60;;;20.00;99.90;;;;;;4932619;29;20094;-75
2022/09/08 13:11:33;;;;;;;6.22;5.60;;;20.00;99.90;;;;;;4927614;29;20079;-75
2022/09/08 13:14:05;;;;;;;7.32;6.63;;;20.30;99.90;;;;;;4942053;29;20047;-75
2022/09/08 13:16:31;;;;;;;6.10;4.80;;;20.80;99.90;;;;;;4933014;29;20407;-74
2022/09/08 13:19:27;;;;;;;4.75;4.25;;;21.30;99.90;;;;;;4931688;29;20037;-75
2022/09/08 13:21:56;;;;;;;4.90;4.40;;;21.60;99.90;;;;;;4932995;29;20546;-75
2022/09/08 13:24:52;;;;;;;6.40;4.47;;;21.80;99.90;;;;;;4942149;29;20086;-75